createdAt,value
2022-09-03T00:01:48.251Z,16.91
2022-09-03T00:03:58.122Z,16.89
2022-09-03T00:06:13.276Z,16.88
2022-09-03T00:08:21.041Z,16.86
2022-09-03T00:10:29.565Z,16.83
2022-09-03T00:12:36.972Z,16.80
2022-09-03T00:14:43.803Z,16.77
2022-09-03T00:16:51.961Z,16.75
2022-09-03T00:19:02.862Z,16.77
2022-09-03T00:21:10.207Z,16.78
2022-09-03T00:23:18.537Z,16.81
2022-09-03T00:25:26.790Z,16.82
2022-09-03T00:27:35.295Z,16.83
2022-09-03T00:29:42.548Z,16.84
2022-09-03T00:31:48.888Z,16.82
2022-09-03T00:33:55.594Z,16.78
2022-09-03T00:36:07.805Z,16.77
2022-09-03T00:38:12.545Z,16.74
2022-09-03T00:40:21.761Z,16.70
2022-09-03T00:42:37.223Z,16.67
2022-09-03T00:44:51.322Z,16.63
2022-09-03T00:46:58.845Z,16.58
2022-09-03T00:49:18.230Z,16.51
2022-09-03T00:51:32.099Z,16.46
2022-09-03T00:53:40.270Z,16.44
2022-09-03T00:55:49.742Z,16.40
2022-09-03T00:58:01.731Z,16.37
2022-09-03T01:00:09.107Z,16.36
2022-09-03T01:02:19.457Z,16.35
2022-09-03T01:04:38.100Z,16.34
2022-09-03T01:06:49.100Z,16.35
2022-09-03T01:09:06.023Z,16.35
2022-09-03T01:11:20.134Z,16.31
2022-09-03T01:13:26.807Z,16.26
2022-09-03T01:15:36.762Z,16.18
2022-09-03T01:17:50.395Z,16.14
2022-09-03T01:20:09.961Z,16.10
2022-09-03T01:22:29.297Z,16.07
2022-09-03T01:24:49.792Z,16.02
2022-09-03T01:27:03.627Z,15.99
2022-09-03T01:29:15.682Z,15.98
2022-09-03T01:31:27.177Z,16.01
2022-09-03T01:33:38.407Z,16.04
2022-09-03T01:35:50.015Z,16.07
2022-09-03T01:38:01.498Z,16.10
2022-09-03T01:40:10.893Z,16.12
2022-09-03T01:42:20.465Z,16.14
2022-09-03T01:44:39.523Z,16.13
2022-09-03T01:46:45.868Z,16.09
2022-09-03T01:48:55.302Z,16.10
2022-09-03T01:51:06.191Z,16.12
2022-09-03T01:53:13.383Z,16.13
2022-09-03T01:55:23.860Z,16.16
2022-09-03T01:57:41.937Z,16.12
2022-09-03T01:59:52.546Z,16.13
2022-09-03T02:02:01.676Z,16.12
2022-09-03T02:04:17.150Z,16.08
2022-09-03T02:06:22.309Z,16.03
2022-09-03T02:08:26.787Z,16.02
2022-09-03T02:10:34.309Z,16.01
2022-09-03T02:12:39.597Z,16.00
2022-09-03T02:14:44.176Z,15.96
2022-09-03T02:16:51.503Z,15.92
2022-09-03T02:18:58.647Z,15.89
2022-09-03T02:21:04.008Z,15.89
2022-09-03T02:23:08.695Z,15.89
2022-09-03T02:25:14.121Z,15.88
2022-09-03T02:27:19.024Z,15.87
2022-09-03T02:29:24.158Z,15.88
2022-09-03T02:31:28.989Z,15.88
2022-09-03T02:33:39.633Z,15.85
2022-09-03T02:35:44.746Z,15.82
2022-09-03T02:37:50.314Z,15.83
2022-09-03T02:39:55.102Z,15.82
2022-09-03T02:42:01.722Z,15.79
2022-09-03T02:44:09.314Z,15.75
2022-09-03T02:46:17.765Z,15.72
2022-09-03T02:48:25.718Z,15.69
2022-09-03T02:50:33.023Z,15.68
2022-09-03T02:52:37.634Z,15.66
2022-09-03T02:54:45.248Z,15.63
2022-09-03T02:56:49.971Z,15.62
2022-09-03T02:58:54.498Z,15.61
2022-09-03T03:00:59.120Z,15.60
2022-09-03T03:03:03.680Z,15.60
2022-09-03T03:05:08.991Z,15.61
2022-09-03T03:07:16.249Z,15.58
2022-09-03T03:09:21.170Z,15.59
2022-09-03T03:11:27.494Z,15.56
2022-09-03T03:13:32.603Z,15.55
2022-09-03T03:15:37.181Z,15.53
2022-09-03T03:17:41.768Z,15.54
2022-09-03T03:19:46.436Z,15.51
2022-09-03T03:21:51.087Z,15.50
2022-09-03T03:23:58.197Z,15.44
2022-09-03T03:26:03.829Z,15.40
2022-09-03T03:28:08.932Z,15.38
2022-09-03T03:30:14.439Z,15.36
2022-09-03T03:32:19.233Z,15.35
2022-09-03T03:34:24.460Z,15.35
2022-09-03T03:36:30.383Z,15.35
2022-09-03T03:38:35.142Z,15.32
2022-09-03T03:40:43.004Z,15.31
2022-09-03T03:42:47.637Z,15.31
2022-09-03T03:44:52.300Z,15.29
2022-09-03T03:46:56.885Z,15.24
2022-09-03T03:49:01.984Z,15.19
2022-09-03T03:51:07.585Z,15.11
2022-09-03T03:53:12.269Z,15.09
2022-09-03T03:55:16.985Z,15.07
2022-09-03T03:57:24.361Z,15.03
2022-09-03T03:59:29.025Z,15.01
2022-09-03T04:01:33.624Z,14.94
2022-09-03T04:03:38.886Z,14.92
2022-09-03T04:05:46.270Z,14.90
2022-09-03T04:07:53.134Z,14.82
2022-09-03T04:09:57.694Z,14.80
2022-09-03T04:12:03.664Z,14.79
2022-09-03T04:14:10.808Z,14.80
2022-09-03T04:16:16.244Z,14.80
2022-09-03T04:18:20.809Z,14.81
2022-09-03T04:20:25.367Z,14.84
2022-09-03T04:22:31.345Z,14.84
2022-09-03T04:24:35.958Z,14.86
2022-09-03T04:26:40.753Z,14.88
2022-09-03T04:28:45.750Z,14.91
2022-09-03T04:30:53.016Z,14.93
2022-09-03T04:32:56.144Z,14.90
2022-09-03T04:35:00.793Z,14.85
2022-09-03T04:37:05.373Z,14.77
2022-09-03T04:39:09.942Z,14.73
2022-09-03T04:41:15.617Z,14.68
2022-09-03T04:43:20.136Z,14.62
2022-09-03T04:45:24.740Z,14.65
2022-09-03T04:47:32.123Z,14.67
2022-09-03T04:49:36.726Z,14.74
2022-09-03T04:51:41.292Z,14.81
2022-09-03T04:53:46.942Z,14.86
2022-09-03T04:55:54.489Z,14.92
2022-09-03T04:57:59.053Z,14.99
2022-09-03T05:00:03.667Z,15.03
2022-09-03T05:02:08.383Z,15.08
2022-09-03T05:04:15.915Z,15.13
2022-09-03T05:06:20.833Z,15.18
2022-09-03T05:08:26.724Z,15.23
2022-09-03T05:10:31.494Z,15.23
2022-09-03T05:12:36.215Z,15.26
2022-09-03T05:14:40.781Z,15.31
2022-09-03T05:16:52.606Z,15.33
2022-09-03T05:18:59.275Z,15.32
2022-09-03T05:21:07.361Z,15.33
2022-09-03T05:23:12.385Z,15.33
2022-09-03T05:25:16.990Z,15.34
2022-09-03T05:27:21.549Z,15.33
2022-09-03T05:29:26.164Z,15.35
2022-09-03T05:31:32.107Z,15.34
2022-09-03T05:33:38.010Z,15.37
2022-09-03T05:35:42.842Z,15.39
2022-09-03T05:37:50.071Z,15.42
2022-09-03T05:39:54.785Z,15.47
2022-09-03T05:41:59.444Z,15.48
2022-09-03T05:44:06.189Z,15.46
2022-09-03T05:46:12.204Z,15.51
2022-09-03T05:48:16.830Z,15.54
2022-09-03T05:50:21.374Z,15.59
2022-09-03T05:52:26.007Z,15.61
2022-09-03T05:54:33.229Z,15.66
2022-09-03T05:56:40.210Z,15.71
2022-09-03T05:58:45.510Z,15.71
2022-09-03T06:00:50.824Z,15.70
2022-09-03T06:02:55.853Z,15.70
2022-09-03T06:05:00.535Z,15.66
2022-09-03T06:07:05.220Z,15.59
2022-09-03T06:09:10.895Z,15.61
2022-09-03T06:11:18.082Z,15.57
2022-09-03T06:13:22.757Z,15.57
2022-09-03T06:15:27.454Z,15.57
2022-09-03T06:17:32.046Z,15.56
2022-09-03T06:19:36.640Z,15.63
2022-09-03T06:21:42.970Z,15.67
2022-09-03T06:23:51.822Z,15.75
2022-09-03T06:26:05.529Z,15.82
2022-09-03T06:28:12.830Z,15.90
2022-09-03T06:30:17.707Z,15.95
2022-09-03T06:32:22.338Z,16.04
2022-09-03T06:34:27.340Z,16.10
2022-09-03T06:36:31.962Z,16.13
2022-09-03T06:38:38.086Z,16.18
2022-09-03T06:40:42.669Z,16.29
2022-09-03T06:42:48.015Z,16.38
2022-09-03T06:44:55.264Z,16.50
2022-09-03T06:47:01.575Z,16.58
2022-09-03T06:49:08.992Z,16.77
2022-09-03T06:51:14.491Z,16.92
2022-09-03T06:53:19.092Z,17.10
2022-09-03T06:55:24.246Z,17.22
2022-09-03T06:57:29.734Z,17.22
2022-09-03T06:59:34.486Z,17.23
2022-09-03T07:01:45.341Z,17.24
2022-09-03T07:03:52.143Z,17.30
2022-09-03T07:05:56.751Z,17.26
2022-09-03T07:08:01.332Z,17.23
2022-09-03T07:10:06.521Z,17.32
2022-09-03T07:12:12.220Z,17.49
2022-09-03T07:14:17.169Z,17.76
2022-09-03T07:16:22.754Z,18.15
2022-09-03T07:18:30.168Z,18.68
2022-09-03T07:20:34.778Z,19.11
2022-09-03T07:22:39.301Z,19.19
2022-09-03T07:24:46.987Z,19.19
2022-09-03T07:26:51.845Z,19.05
2022-09-03T07:28:57.063Z,19.05
2022-09-03T07:31:04.913Z,18.94
2022-09-03T07:33:09.601Z,18.75
2022-09-03T07:35:16.869Z,18.80
2022-09-03T07:37:22.033Z,18.80
2022-09-03T07:39:26.843Z,18.81
2022-09-03T07:41:33.376Z,18.90
2022-09-03T07:43:40.127Z,18.96
2022-09-03T07:45:46.600Z,19.04
2022-09-03T07:47:53.065Z,19.06
2022-09-03T07:49:57.687Z,19.06
2022-09-03T07:52:05.087Z,19.15
2022-09-03T07:54:11.572Z,19.19
2022-09-03T07:56:17.240Z,19.16
2022-09-03T07:58:24.685Z,19.24
2022-09-03T08:00:29.341Z,19.32
2022-09-03T08:02:33.951Z,19.35
2022-09-03T08:04:38.750Z,19.46
2022-09-03T08:06:43.439Z,19.55
2022-09-03T08:08:50.730Z,19.60
2022-09-03T08:10:55.354Z,19.65
2022-09-03T08:13:00.463Z,19.64
2022-09-03T08:15:05.322Z,19.74
2022-09-03T08:17:09.857Z,19.77
2022-09-03T08:19:14.955Z,19.88
2022-09-03T08:21:20.884Z,19.97
2022-09-03T08:23:25.476Z,20.08
2022-09-03T08:25:33.271Z,20.23
2022-09-03T08:27:37.845Z,20.37
2022-09-03T08:29:42.418Z,20.53
2022-09-03T08:31:49.245Z,20.66
2022-09-03T08:33:54.645Z,20.73
2022-09-03T08:35:59.331Z,20.80
2022-09-03T08:38:07.172Z,20.84
2022-09-03T08:40:15.491Z,20.87
2022-09-03T08:42:31.579Z,20.89
2022-09-03T08:44:48.397Z,20.93
2022-09-03T08:46:54.435Z,21.04
2022-09-03T08:48:59.966Z,21.12
2022-09-03T08:51:04.953Z,21.16
2022-09-03T08:53:13.992Z,21.06
2022-09-03T08:55:21.239Z,21.00
2022-09-03T08:57:28.927Z,20.97
2022-09-03T08:59:34.623Z,20.88
2022-09-03T09:01:46.307Z,20.78
2022-09-03T09:03:54.230Z,20.72
2022-09-03T09:06:02.252Z,20.64
2022-09-03T09:08:11.954Z,20.55
2022-09-03T09:10:19.344Z,20.55
2022-09-03T09:12:41.397Z,20.56
2022-09-03T09:14:56.764Z,20.60
2022-09-03T09:17:04.943Z,20.61
2022-09-03T09:19:15.961Z,20.70
2022-09-03T09:21:27.564Z,20.66
2022-09-03T09:23:34.094Z,20.70
2022-09-03T09:25:45.628Z,20.77
2022-09-03T09:27:52.655Z,20.94
2022-09-03T09:30:01.987Z,21.00
2022-09-03T09:32:08.043Z,21.06
2022-09-03T09:34:12.619Z,21.14
2022-09-03T09:36:19.533Z,21.09
2022-09-03T09:38:31.305Z,21.13
2022-09-03T09:40:37.571Z,21.11
2022-09-03T09:42:44.254Z,21.20
2022-09-03T09:44:48.863Z,21.23
2022-09-03T09:47:06.883Z,21.23
2022-09-03T09:49:21.264Z,21.28
2022-09-03T09:51:27.037Z,21.41
2022-09-03T09:53:31.873Z,21.59
2022-09-03T09:55:39.103Z,21.62
2022-09-03T09:57:43.711Z,21.62
2022-09-03T09:59:50.665Z,21.69
2022-09-03T10:02:06.284Z,21.69
2022-09-03T10:04:15.011Z,21.66
2022-09-03T10:06:32.362Z,21.67
2022-09-03T10:08:37.252Z,21.55
2022-09-03T10:10:45.886Z,21.56
2022-09-03T10:12:59.612Z,21.66
2022-09-03T10:15:06.531Z,21.71
2022-09-03T10:17:20.063Z,21.80
2022-09-03T10:19:34.678Z,22.00
2022-09-03T10:21:44.470Z,22.01
2022-09-03T10:23:53.817Z,22.08
2022-09-03T10:26:07.395Z,22.21
2022-09-03T10:28:13.974Z,22.29
2022-09-03T10:30:18.624Z,22.31
2022-09-03T10:32:37.999Z,22.29
2022-09-03T10:34:49.134Z,22.35
2022-09-03T10:36:59.747Z,22.44
2022-09-03T10:39:07.582Z,22.50
2022-09-03T10:41:19.380Z,22.57
2022-09-03T10:43:33.223Z,22.65
2022-09-03T10:45:41.818Z,22.76
2022-09-03T10:48:01.297Z,22.91
2022-09-03T10:50:16.561Z,23.03
2022-09-03T10:52:28.847Z,23.11
2022-09-03T10:54:39.796Z,23.26
2022-09-03T10:56:49.352Z,23.41
2022-09-03T10:59:02.460Z,23.54
2022-09-03T11:01:11.160Z,23.66
2022-09-03T11:03:35.762Z,23.80
2022-09-03T11:05:45.481Z,23.99
2022-09-03T11:07:53.307Z,24.08
2022-09-03T11:10:00.562Z,24.24
2022-09-03T11:12:08.764Z,24.35
2022-09-03T11:14:15.443Z,24.49
2022-09-03T11:16:20.790Z,24.67
2022-09-03T11:18:28.528Z,24.86
2022-09-03T11:20:33.545Z,25.03
2022-09-03T11:22:42.442Z,25.17
2022-09-03T11:24:48.806Z,25.27
2022-09-03T11:26:56.563Z,25.34
2022-09-03T11:29:04.212Z,25.51
2022-09-03T11:31:17.807Z,25.57
2022-09-03T11:33:25.135Z,25.51
2022-09-03T11:35:31.543Z,25.50
2022-09-03T11:37:36.284Z,25.46
2022-09-03T11:39:44.285Z,25.48
2022-09-03T11:42:00.107Z,25.50
2022-09-03T11:44:14.540Z,25.46
2022-09-03T11:46:30.689Z,25.39
2022-09-03T11:48:39.381Z,25.47
2022-09-03T11:50:54.378Z,25.52
2022-09-03T11:53:12.955Z,25.55
2022-09-03T11:55:36.098Z,25.60
2022-09-03T11:57:47.347Z,25.60
2022-09-03T11:59:51.928Z,25.49
2022-09-03T12:02:01.699Z,25.37
2022-09-03T12:04:09.776Z,25.22
2022-09-03T12:06:27.538Z,25.19
2022-09-03T12:08:45.768Z,25.06
2022-09-03T12:11:00.887Z,25.00
2022-09-03T12:13:15.298Z,24.92
2022-09-03T12:15:25.434Z,24.97
2022-09-03T12:17:33.815Z,24.98
2022-09-03T12:19:40.773Z,25.04
2022-09-03T12:21:45.375Z,25.16
2022-09-03T12:23:51.486Z,25.30
2022-09-03T12:26:07.793Z,25.36
2022-09-03T12:28:16.329Z,25.41
2022-09-03T12:30:22.571Z,25.37
2022-09-03T12:32:27.327Z,25.36
2022-09-03T12:34:34.667Z,25.39
2022-09-03T12:36:40.831Z,25.46
2022-09-03T12:39:10.303Z,25.51
2022-09-03T12:41:27.287Z,25.58
2022-09-03T12:43:41.197Z,25.57
2022-09-03T12:48:15.703Z,25.47
2022-09-03T12:50:21.412Z,25.40
2022-09-03T12:52:29.813Z,25.39
2022-09-03T12:54:34.800Z,25.35
2022-09-03T12:56:43.546Z,25.54
2022-09-03T12:58:51.141Z,25.72
2022-09-03T13:00:57.506Z,25.79
2022-09-03T13:03:03.860Z,25.87
2022-09-03T13:05:09.259Z,25.96
2022-09-03T13:07:16.935Z,26.01
2022-09-03T13:09:23.818Z,26.05
2022-09-03T13:11:28.810Z,26.07
2022-09-03T13:13:37.185Z,26.03
2022-09-03T13:15:41.862Z,26.04
2022-09-03T13:18:04.265Z,26.01
2022-09-03T13:20:20.224Z,26.00
2022-09-03T13:22:32.534Z,25.91
2022-09-03T13:24:49.212Z,25.89
2022-09-03T13:27:01.817Z,25.82
2022-09-03T13:29:18.689Z,25.72
2022-09-03T13:31:27.094Z,25.65
2022-09-03T13:33:36.010Z,25.53
2022-09-03T13:35:42.001Z,25.46
2022-09-03T13:37:48.491Z,25.37
2022-09-03T13:39:57.406Z,25.37
2022-09-03T13:42:09.168Z,25.36
2022-09-03T13:44:19.227Z,25.31
2022-09-03T13:46:26.531Z,25.37
2022-09-03T13:48:47.004Z,25.38
2022-09-03T13:50:59.599Z,25.48
2022-09-03T13:53:07.803Z,25.59
2022-09-03T13:55:15.565Z,25.63
2022-09-03T13:57:27.123Z,25.57
2022-09-03T13:59:38.301Z,25.52
2022-09-03T14:01:49.703Z,25.61
2022-09-03T14:03:56.294Z,25.67
2022-09-03T14:06:05.741Z,25.60
2022-09-03T14:08:15.443Z,25.58
2022-09-03T14:10:24.409Z,25.59
2022-09-03T14:12:38.582Z,25.61
2022-09-03T14:14:48.866Z,25.68
2022-09-03T14:17:00.097Z,25.71
2022-09-03T14:19:07.522Z,25.67
2022-09-03T14:21:16.269Z,25.67
2022-09-03T14:23:27.535Z,25.67
2022-09-03T14:25:32.767Z,25.67
2022-09-03T14:27:37.647Z,25.65
2022-09-03T14:29:52.905Z,25.68
2022-09-03T14:32:15.085Z,25.59
2022-09-03T14:34:26.469Z,25.61
2022-09-03T14:36:39.187Z,25.48
2022-09-03T14:38:58.751Z,25.50
2022-09-03T14:41:07.857Z,25.42
2022-09-03T14:43:19.982Z,25.29
2022-09-03T14:45:33.458Z,25.15
2022-09-03T14:47:46.874Z,25.04
2022-09-03T14:50:05.978Z,25.02
2022-09-03T14:52:17.718Z,24.93
2022-09-03T14:54:37.876Z,24.91
2022-09-03T14:56:52.118Z,24.85
2022-09-03T14:59:06.702Z,24.82
2022-09-03T15:01:15.387Z,24.82
2022-09-03T15:03:34.915Z,24.76
2022-09-03T15:05:54.844Z,24.74
2022-09-03T15:08:03.137Z,24.70
2022-09-03T15:10:16.982Z,24.70
2022-09-03T15:12:23.932Z,24.62
2022-09-03T15:14:30.333Z,24.53
2022-09-03T15:16:42.988Z,24.43
2022-09-03T15:18:53.801Z,24.34
2022-09-03T15:21:09.465Z,24.22
2022-09-03T15:23:26.921Z,24.10
2022-09-03T15:25:35.678Z,24.05
2022-09-03T15:27:47.339Z,24.03
2022-09-03T15:29:54.525Z,23.99
2022-09-03T15:32:03.698Z,23.97
2022-09-03T15:34:13.341Z,23.92
2022-09-03T15:36:23.348Z,23.86
2022-09-03T15:38:32.739Z,23.85
2022-09-03T15:40:39.871Z,23.82
2022-09-03T15:42:46.244Z,23.78
2022-09-03T15:44:52.605Z,23.69
2022-09-03T15:47:00.612Z,23.65
2022-09-03T15:49:09.073Z,23.65
2022-09-03T15:51:19.076Z,23.61
2022-09-03T15:53:31.886Z,23.60
2022-09-03T15:55:38.002Z,23.59
2022-09-03T15:57:49.917Z,23.56
2022-09-03T16:00:02.284Z,23.54
2022-09-03T16:02:13.402Z,23.52
2022-09-03T16:04:28.305Z,23.37
2022-09-03T16:06:38.511Z,23.21
2022-09-03T16:08:50.513Z,22.90
2022-09-03T16:11:01.883Z,22.57
2022-09-03T16:13:10.960Z,22.33
2022-09-03T16:15:23.452Z,20.67
2022-09-03T16:17:31.168Z,19.12
2022-09-03T16:19:39.545Z,18.10
2022-09-03T16:21:49.139Z,17.56
2022-09-03T16:23:58.894Z,17.48
2022-09-03T16:26:06.369Z,17.42
2022-09-03T16:28:15.144Z,17.33
2022-09-03T16:30:25.069Z,17.24
2022-09-03T16:32:47.534Z,17.18
2022-09-03T16:34:57.717Z,17.22
2022-09-03T16:37:07.389Z,17.19
2022-09-03T16:39:19.478Z,17.27
2022-09-03T16:41:29.238Z,17.49
2022-09-03T16:43:42.508Z,17.47
2022-09-03T16:45:51.683Z,17.57
2022-09-03T16:48:08.048Z,17.73
2022-09-03T16:50:23.715Z,17.85
2022-09-03T16:52:39.017Z,17.95
2022-09-03T16:54:57.377Z,18.03
2022-09-03T16:57:07.589Z,18.11
2022-09-03T16:59:18.261Z,18.04
2022-09-03T17:01:44.496Z,17.87
2022-09-03T17:04:09.873Z,17.80
2022-09-03T17:06:23.731Z,17.90
2022-09-03T17:08:34.002Z,17.96
2022-09-03T17:10:48.077Z,17.92
2022-09-03T17:12:58.706Z,18.01
2022-09-03T17:15:18.758Z,18.03
2022-09-03T17:17:30.463Z,18.08
2022-09-03T17:19:37.519Z,18.15
2022-09-03T17:21:51.062Z,18.18
2022-09-03T17:24:02.610Z,18.22
2022-09-03T17:26:14.219Z,18.27
2022-09-03T17:28:28.248Z,18.28
2022-09-03T17:30:40.911Z,18.27
2022-09-03T17:32:57.258Z,18.25
2022-09-03T17:35:09.213Z,18.18
2022-09-03T17:37:22.277Z,18.14
2022-09-03T17:39:35.079Z,18.20
2022-09-03T17:41:46.181Z,18.24
2022-09-03T17:43:54.662Z,18.30
2022-09-03T17:46:02.236Z,18.40
2022-09-03T17:48:26.298Z,18.47
2022-09-03T17:50:32.149Z,18.50
2022-09-03T17:52:41.571Z,18.48
2022-09-03T17:54:50.834Z,18.44
2022-09-03T17:57:03.551Z,18.40
2022-09-03T17:59:10.960Z,18.39
2022-09-03T18:01:18.545Z,18.39
2022-09-03T18:03:26.717Z,18.38
2022-09-03T18:05:33.622Z,18.39
2022-09-03T18:07:45.819Z,18.44
2022-09-03T18:09:54.961Z,18.46
2022-09-03T18:12:09.131Z,18.47
2022-09-03T18:14:19.760Z,18.46
2022-09-03T18:16:29.091Z,18.43
2022-09-03T18:18:34.894Z,18.46
2022-09-03T18:21:20.782Z,18.49
2022-09-03T18:23:36.450Z,18.43
2022-09-03T18:25:55.984Z,18.43
2022-09-03T18:28:17.421Z,18.45
2022-09-03T18:30:34.422Z,18.36
2022-09-03T18:32:51.473Z,18.38
2022-09-03T18:35:08.495Z,18.33
2022-09-03T18:37:25.699Z,18.41
2022-09-03T18:39:43.256Z,18.41
2022-09-03T18:42:07.968Z,18.40
2022-09-03T18:44:33.129Z,18.41
2022-09-03T18:49:39.640Z,18.43
2022-09-03T18:52:01.146Z,18.38
2022-09-03T18:54:27.608Z,18.38
2022-09-03T18:56:50.441Z,18.44
2022-09-03T18:59:15.874Z,18.47
2022-09-03T19:01:41.894Z,18.50
2022-09-03T19:04:04.674Z,18.51
2022-09-03T19:06:29.658Z,18.55
2022-09-03T19:08:52.166Z,18.59
2022-09-03T19:11:12.136Z,18.52
2022-09-03T19:13:36.381Z,18.48
2022-09-03T19:15:56.639Z,18.35
2022-09-03T19:18:31.619Z,18.35
2022-09-03T19:20:52.213Z,18.43
2022-09-03T19:23:09.164Z,18.46
2022-09-03T19:25:27.471Z,18.38
2022-09-03T19:27:59.586Z,18.37
2022-09-03T19:30:20.597Z,18.36
2022-09-03T19:32:41.191Z,18.40
2022-09-03T19:35:07.660Z,18.35
2022-09-03T19:37:30.881Z,18.27
2022-09-03T19:39:57.315Z,18.13
2022-09-03T19:42:18.262Z,18.14
2022-09-03T19:44:43.047Z,18.18
2022-09-03T19:47:02.313Z,18.19
2022-09-03T19:49:24.796Z,18.16
2022-09-03T19:51:45.615Z,18.14
2022-09-03T19:54:05.784Z,18.09
2022-09-03T19:56:26.117Z,18.05
2022-09-03T19:58:45.763Z,18.03
2022-09-03T20:01:02.855Z,18.00
2022-09-03T20:03:20.780Z,18.05
2022-09-03T20:05:37.936Z,18.11
2022-09-03T20:07:54.947Z,18.12
2022-09-03T20:10:16.751Z,18.11
2022-09-03T20:12:23.676Z,18.06
2022-09-03T20:14:28.454Z,18.05
2022-09-03T20:16:35.487Z,18.12
2022-09-03T20:18:45.597Z,18.15
2022-09-03T20:20:55.267Z,18.17
2022-09-03T20:23:02.878Z,18.23
2022-09-03T20:25:17.929Z,18.23
2022-09-03T20:27:31.939Z,18.26
2022-09-03T20:29:54.736Z,18.24
2022-09-03T20:32:04.499Z,18.27
2022-09-03T20:34:18.307Z,18.28
2022-09-03T20:36:26.655Z,18.28
2022-09-03T20:38:43.761Z,18.31
2022-09-03T20:40:56.737Z,18.40
2022-09-03T20:43:15.038Z,18.23
2022-09-03T20:45:21.629Z,18.34
2022-09-03T20:47:43.780Z,18.32
2022-09-03T20:49:55.894Z,18.38
2022-09-03T20:52:06.547Z,18.29
2022-09-03T20:54:15.570Z,18.26
2022-09-03T20:56:28.175Z,18.26
2022-09-03T20:58:36.741Z,18.24
2022-09-03T21:00:48.146Z,18.23
2022-09-03T21:03:12.854Z,18.22
2022-09-03T21:05:20.216Z,18.21
2022-09-03T21:07:29.378Z,18.13
2022-09-03T21:09:45.498Z,18.09
2022-09-03T21:11:55.859Z,18.05
2022-09-03T21:14:04.766Z,18.00
2022-09-03T21:16:23.530Z,18.02
2022-09-03T21:18:33.172Z,18.00
2022-09-03T21:20:46.401Z,17.98
2022-09-03T21:22:58.807Z,17.93
2022-09-03T21:25:05.970Z,17.89
2022-09-03T21:27:20.912Z,17.82
2022-09-03T21:29:28.329Z,17.87
2022-09-03T21:31:38.500Z,17.91
2022-09-03T21:33:47.693Z,17.87
2022-09-03T21:35:54.212Z,17.79
2022-09-03T21:38:01.169Z,17.71
2022-09-03T21:40:08.032Z,17.68
2022-09-03T21:42:20.731Z,17.67
2022-09-03T21:44:28.575Z,17.66
2022-09-03T21:46:35.696Z,17.65
2022-09-03T21:48:43.054Z,17.63
2022-09-03T21:50:54.032Z,17.58
2022-09-03T21:53:00.924Z,17.55
2022-09-03T21:55:06.145Z,17.53
2022-09-03T21:57:22.479Z,17.50
2022-09-03T21:59:44.187Z,17.48
2022-09-03T22:01:55.421Z,17.53
2022-09-03T22:04:00.035Z,17.54
2022-09-03T22:06:06.357Z,17.51
2022-09-03T22:08:15.679Z,17.53
2022-09-03T22:10:24.014Z,17.57
2022-09-03T22:12:33.860Z,17.49
2022-09-03T22:14:43.200Z,17.49
2022-09-03T22:16:50.322Z,17.58
2022-09-03T22:18:56.820Z,17.56
2022-09-03T22:21:05.293Z,17.59
2022-09-03T22:23:14.057Z,17.61
2022-09-03T22:25:21.289Z,17.53
2022-09-03T22:27:29.914Z,17.51
2022-09-03T22:29:43.800Z,17.49
2022-09-03T22:31:55.440Z,17.50
2022-09-03T22:34:06.302Z,17.42
2022-09-03T22:36:16.321Z,17.44
2022-09-03T22:38:33.575Z,17.39
2022-09-03T22:40:42.188Z,17.30
2022-09-03T22:42:54.213Z,17.34
2022-09-03T22:45:10.843Z,17.32
2022-09-03T22:47:21.480Z,17.29
2022-09-03T22:49:38.174Z,17.24
2022-09-03T22:51:49.648Z,17.26
2022-09-03T22:54:03.636Z,17.27
2022-09-03T22:56:09.895Z,17.29
2022-09-03T22:58:16.766Z,17.30
2022-09-03T23:00:24.049Z,17.24
2022-09-03T23:02:30.196Z,17.26
2022-09-03T23:04:39.784Z,17.27
2022-09-03T23:06:51.113Z,17.20
2022-09-03T23:08:59.468Z,17.22
2022-09-03T23:11:07.765Z,17.23
2022-09-03T23:13:13.827Z,17.23
2022-09-03T23:15:20.935Z,17.25
2022-09-03T23:19:41.025Z,17.24
2022-09-03T23:21:53.619Z,17.27
2022-09-03T23:24:02.639Z,17.25
2022-09-03T23:26:13.456Z,17.27
2022-09-03T23:28:21.897Z,17.27
2022-09-03T23:30:26.609Z,17.26
2022-09-03T23:32:34.266Z,17.26
2022-09-03T23:34:40.811Z,17.25
2022-09-03T23:37:29.578Z,17.26
2022-09-03T23:39:41.423Z,17.23
2022-09-03T23:41:50.968Z,17.22
2022-09-03T23:44:05.791Z,17.20
2022-09-03T23:46:16.922Z,17.22
2022-09-03T23:48:30.094Z,17.22
2022-09-03T23:50:38.676Z,17.19
2022-09-03T23:52:53.184Z,17.15
2022-09-03T23:55:05.263Z,17.16
2022-09-03T23:57:14.062Z,17.16
2022-09-03T23:59:24.342Z,17.15
